VIP Ground Handling & Aviation Services

 

 
Airport

PLOVDIV (BDV)

Ground Handling Services – PDV/LBPD

VIP Ground Handling

State Ground Handling

Military Ground Handling

Slot & PPR Coordination

Fuel Arrangements

Crew Accommodation Arrangements

Crew Transportation

Customs & Immigration Assistance

Executive Terminal Services

Crew Lounge

Flight Planning, Weather Briefing and NOTAMs

Catering Arrangements

Security Services

Aircraft Maintenance

Airport Customs & Immigration

Concierge Services

VIP Meet & Greet

Helicopter Transfers

Chauffeur Services

Aircraft Charter

Yacht Charter

Hire & Rental

Entertainment & Hospitality

Health & Beauty

Delivery Services

Conference & Meeting rooms

Plovdiv Airport, Bulgaria, 4009

+359895151500 (24/7)

+359 2 9459020

bulgaria@alphajetservices.com

Plovdiv Airport
Airport Type
•Joint Civil/Military
Operating Hours
•Check NOTAMS / Contact us
Fuel Available
•JET A1
Fire Category
•7
Approaches
•ILS / DME NDB
Available data for LBPD from the past 2 hours
PLOVDIV
Metar
LBPD 261000Z AUTO 10006KT 060V160 9999 NCD 31/14 Q1020 NOSIG

10:00 UTC

Wind: 100° 6kt

Visibility: 9999 m

Sky:

Temp: 31 deg C / 87.8 deg F

Dewpoint: 14 deg C / 57.2 deg F

Pressure: 1020 hPa

TAF
TAF LBPD 260500Z 2606/2706 VRB04KT CAVOK BECMG 2609/2611 09010KT BECMG 2619/2621 VRB04KT